Vernon, Oklahoma
Current Conditions -  °F | °C
As of 11:53 PM on Friday 28 Nov 2014 (Local Time) from KMLC Reporting Station
Broken Clouds Broken Clouds  
Wind Chill: 59°   Ceiling: 11000
Heat Index: 59°   Visibility: 10mi
Dew Point: 48°   Wind: 14mph
Humidity: 67%   Direction: 190°S
Pressure: 29.9"   Gusts: 26mph
Location:  35.2158°N, 95.8817°W
Report Text: KMLC 290553Z AUTO 19012G23KT 10SM FEW075 SCT090 BKN110 15/09 A2990 RMK AO2 SLP121 T01500089 10167 20139 402000061 58014
Loading
Personal Weather Stations






























Interactive Weather Map New forecast layout! Learn more

10-Day Weather Forecast

Advertisements
Track Severe Weather on mobile